Terminal Aerodrome Forecast
Issued by NWS

Home | Current Version | Previous Version | Text Only | Print | Product List | Glossary Off
Versions: 1 2 3 4 5 6 7 8 9 10 11 12 13 14 15 16 17 18

000
FTUS43 KICT 250527
TAFRSL
TAF
KRSL 250527Z 2506/2606 30020G27KT P6SM SCT050 BKN100
     FM251200 32023G35KT P6SM SCT050 BKN120
     FM251500 34026G40KT P6SM SCT050 BKN100
     FM252300 32010KT P6SM SCT250
     FM260300 33007KT P6SM SKC=

USA.gov is the U.S. government's official web portal to all federal, state and local government web resources and services.